sensor_id;sensor_type;location;lat;lon;timestamp;pressure;altitude;pressure_sealevel;temperature;humidity
52291;BME280;39663;45.432;28.050;2023-11-21T00:00:18;100840.47;;;9.97;44.77
52291;BME280;39663;45.432;28.050;2023-11-21T00:00:50;100839.50;;;9.78;44.62
52291;BME280;39663;45.432;28.050;2023-11-21T00:01:21;100837.09;;;9.82;44.58
52291;BME280;39663;45.432;28.050;2023-11-21T00:01:53;100839.82;;;9.90;44.52
52291;BME280;39663;45.432;28.050;2023-11-21T00:02:24;100841.86;;;9.93;43.75
52291;BME280;39663;45.432;28.050;2023-11-21T00:02:55;100840.22;;;9.86;45.05
52291;BME280;39663;45.432;28.050;2023-11-21T00:03:27;100839.33;;;9.94;45.20
52291;BME280;39663;45.432;28.050;2023-11-21T00:03:58;100840.51;;;10.02;45.23
52291;BME280;39663;45.432;28.050;2023-11-21T00:04:30;100841.04;;;10.13;45.04
52291;BME280;39663;45.432;28.050;2023-11-21T00:05:01;100840.90;;;10.46;44.78
52291;BME280;39663;45.432;28.050;2023-11-21T00:05:33;100837.87;;;10.34;44.79
52291;BME280;39663;45.432;28.050;2023-11-21T00:06:05;100835.81;;;10.50;43.30
52291;BME280;39663;45.432;28.050;2023-11-21T00:06:36;100837.42;;;10.47;43.22
52291;BME280;39663;45.432;28.050;2023-11-21T00:07:08;100837.63;;;10.50;44.49
52291;BME280;39663;45.432;28.050;2023-11-21T00:07:40;100835.17;;;10.55;44.06
52291;BME280;39663;45.432;28.050;2023-11-21T00:08:11;100832.91;;;10.61;43.52
52291;BME280;39663;45.432;28.050;2023-11-21T00:08:43;100832.25;;;10.62;44.16
52291;BME280;39663;45.432;28.050;2023-11-21T00:09:14;100832.57;;;10.46;43.38
52291;BME280;39663;45.432;28.050;2023-11-21T00:09:46;100828.95;;;10.49;43.88
52291;BME280;39663;45.432;28.050;2023-11-21T00:10:17;100827.94;;;10.46;43.61
52291;BME280;39663;45.432;28.050;2023-11-21T00:10:49;100827.42;;;10.75;43.07
52291;BME280;39663;45.432;28.050;2023-11-21T00:11:20;100827.19;;;10.76;42.52
52291;BME280;39663;45.432;28.050;2023-11-21T00:11:51;100829.28;;;10.63;43.16
52291;BME280;39663;45.432;28.050;2023-11-21T00:12:23;100828.18;;;10.61;43.74
52291;BME280;39663;45.432;28.050;2023-11-21T00:12:54;100828.13;;;10.63;43.20
52291;BME280;39663;45.432;28.050;2023-11-21T00:13:25;100828.63;;;10.45;42.50
52291;BME280;39663;45.432;28.050;2023-11-21T00:13:57;100827.71;;;10.32;44.21
52291;BME280;39663;45.432;28.050;2023-11-21T00:14:28;100828.47;;;10.43;44.61
52291;BME280;39663;45.432;28.050;2023-11-21T00:15:00;100828.43;;;10.29;44.53
52291;BME280;39663;45.432;28.050;2023-11-21T00:15:31;100829.34;;;10.37;44.76
52291;BME280;39663;45.432;28.050;2023-11-21T00:16:04;100828.86;;;10.40;43.30
52291;BME280;39663;45.432;28.050;2023-11-21T00:16:35;100834.57;;;10.67;44.00
52291;BME280;39663;45.432;28.050;2023-11-21T00:17:06;100833.19;;;10.48;44.26
52291;BME280;39663;45.432;28.050;2023-11-21T00:17:38;100833.98;;;10.75;44.00
52291;BME280;39663;45.432;28.050;2023-11-21T00:18:09;100834.54;;;10.81;43.30
52291;BME280;39663;45.432;28.050;2023-11-21T00:18:41;100834.15;;;10.87;42.97
52291;BME280;39663;45.432;28.050;2023-11-21T00:19:12;100835.29;;;10.90;43.87
52291;BME280;39663;45.432;28.050;2023-11-21T00:19:44;100838.05;;;10.58;42.15
52291;BME280;39663;45.432;28.050;2023-11-21T00:20:15;100837.69;;;10.82;43.65
52291;BME280;39663;45.432;28.050;2023-11-21T00:20:47;100840.00;;;10.85;43.23
52291;BME280;39663;45.432;28.050;2023-11-21T00:21:18;100839.78;;;10.63;43.55
52291;BME280;39663;45.432;28.050;2023-11-21T00:21:50;100843.99;;;10.68;42.76
52291;BME280;39663;45.432;28.050;2023-11-21T00:22:21;100847.33;;;10.64;42.59
52291;BME280;39663;45.432;28.050;2023-11-21T00:22:52;100848.78;;;10.75;42.42
52291;BME280;39663;45.432;28.050;2023-11-21T00:23:24;100850.13;;;10.89;43.26
52291;BME280;39663;45.432;28.050;2023-11-21T00:23:55;100850.13;;;10.63;43.24
52291;BME280;39663;45.432;28.050;2023-11-21T00:24:27;100851.67;;;10.58;43.32
52291;BME280;39663;45.432;28.050;2023-11-21T00:24:59;100854.18;;;10.77;42.97
52291;BME280;39663;45.432;28.050;2023-11-21T00:25:30;100854.37;;;10.93;42.63
52291;BME280;39663;45.432;28.050;2023-11-21T00:26:01;100854.84;;;10.94;43.24
52291;BME280;39663;45.432;28.050;2023-11-21T00:26:33;100857.31;;;10.73;42.27
52291;BME280;39663;45.432;28.050;2023-11-21T00:27:04;100857.99;;;10.94;43.08
52291;BME280;39663;45.432;28.050;2023-11-21T00:27:36;100858.35;;;10.99;43.20
52291;BME280;39663;45.432;28.050;2023-11-21T00:28:07;100859.34;;;10.85;42.42
52291;BME280;39663;45.432;28.050;2023-11-21T00:28:39;100858.89;;;11.03;43.35
52291;BME280;39663;45.432;28.050;2023-11-21T00:29:10;100857.67;;;10.84;43.00
52291;BME280;39663;45.432;28.050;2023-11-21T00:29:42;100855.72;;;10.90;43.37
52291;BME280;39663;45.432;28.050;2023-11-21T00:30:14;100858.27;;;11.23;42.17
52291;BME280;39663;45.432;28.050;2023-11-21T00:30:45;100854.85;;;10.75;42.85
52291;BME280;39663;45.432;28.050;2023-11-21T00:31:17;100852.51;;;11.19;43.04
52291;BME280;39663;45.432;28.050;2023-11-21T00:31:48;100853.03;;;11.02;43.09
52291;BME280;39663;45.432;28.050;2023-11-21T00:32:20;100849.48;;;11.06;42.91
52291;BME280;39663;45.432;28.050;2023-11-21T00:32:51;100849.95;;;11.15;41.96
52291;BME280;39663;45.432;28.050;2023-11-21T00:33:22;100850.25;;;11.27;42.98
52291;BME280;39663;45.432;28.050;2023-11-21T00:33:54;100851.00;;;11.15;41.80
52291;BME280;39663;45.432;28.050;2023-11-21T00:34:25;100852.36;;;11.09;41.91
52291;BME280;39663;45.432;28.050;2023-11-21T00:34:57;100852.21;;;11.15;42.99
52291;BME280;39663;45.432;28.050;2023-11-21T00:35:28;100853.13;;;10.93;42.72
52291;BME280;39663;45.432;28.050;2023-11-21T00:36:00;100852.71;;;11.18;42.99
52291;BME280;39663;45.432;28.050;2023-11-21T00:36:31;100854.51;;;11.22;42.19
52291;BME280;39663;45.432;28.050;2023-11-21T00:37:03;100853.10;;;10.90;42.77
52291;BME280;39663;45.432;28.050;2023-11-21T00:37:34;100854.31;;;10.63;42.76
52291;BME280;39663;45.432;28.050;2023-11-21T00:38:06;100855.07;;;10.84;42.56
52291;BME280;39663;45.432;28.050;2023-11-21T00:38:37;100857.79;;;10.96;42.88
52291;BME280;39663;45.432;28.050;2023-11-21T00:39:09;100857.19;;;10.70;43.26
52291;BME280;39663;45.432;28.050;2023-11-21T00:39:40;100858.31;;;10.78;42.75
52291;BME280;39663;45.432;28.050;2023-11-21T00:40:12;100859.98;;;10.80;42.37
52291;BME280;39663;45.432;28.050;2023-11-21T00:40:44;100860.30;;;10.76;42.56
52291;BME280;39663;45.432;28.050;2023-11-21T00:41:15;100861.61;;;10.66;43.33
52291;BME280;39663;45.432;28.050;2023-11-21T00:41:47;100860.37;;;10.56;43.61
52291;BME280;39663;45.432;28.050;2023-11-21T00:42:19;100861.42;;;10.64;43.43
52291;BME280;39663;45.432;28.050;2023-11-21T00:42:53;100861.75;;;10.70;43.10
52291;BME280;39663;45.432;28.050;2023-11-21T00:43:27;100860.63;;;10.70;42.69
52291;BME280;39663;45.432;28.050;2023-11-21T00:44:02;100861.53;;;10.56;43.25
52291;BME280;39663;45.432;28.050;2023-11-21T00:44:34;100861.94;;;10.56;43.67
52291;BME280;39663;45.432;28.050;2023-11-21T00:45:09;100860.45;;;10.72;42.97
52291;BME280;39663;45.432;28.050;2023-11-21T00:45:41;100859.89;;;10.90;42.79
52291;BME280;39663;45.432;28.050;2023-11-21T00:46:12;100860.49;;;10.82;42.54
52291;BME280;39663;45.432;28.050;2023-11-21T00:46:43;100857.02;;;10.68;43.69
52291;BME280;39663;45.432;28.050;2023-11-21T00:47:15;100858.57;;;10.57;43.31
52291;BME280;39663;45.432;28.050;2023-11-21T00:47:47;100859.86;;;10.55;42.94
52291;BME280;39663;45.432;28.050;2023-11-21T00:48:18;100857.86;;;10.52;43.16
52291;BME280;39663;45.432;28.050;2023-11-21T00:48:50;100858.91;;;10.45;43.32
52291;BME280;39663;45.432;28.050;2023-11-21T00:49:21;100862.67;;;10.37;43.27
52291;BME280;39663;45.432;28.050;2023-11-21T00:49:52;100860.94;;;10.15;43.59
52291;BME280;39663;45.432;28.050;2023-11-21T00:50:24;100861.92;;;9.86;43.93
52291;BME280;39663;45.432;28.050;2023-11-21T00:50:55;100862.74;;;9.60;44.46
52291;BME280;39663;45.432;28.050;2023-11-21T00:51:26;100865.85;;;9.52;44.56
52291;BME280;39663;45.432;28.050;2023-11-21T00:51:58;100867.07;;;9.46;44.89
52291;BME280;39663;45.432;28.050;2023-11-21T00:52:29;100869.16;;;9.40;44.95
52291;BME280;39663;45.432;28.050;2023-11-21T00:53:00;100867.50;;;9.32;45.38
52291;BME280;39663;45.432;28.050;2023-11-21T00:53:32;100868.21;;;9.45;45.54
52291;BME280;39663;45.432;28.050;2023-11-21T00:54:04;100868.37;;;9.25;45.63
52291;BME280;39663;45.432;28.050;2023-11-21T00:54:35;100869.18;;;9.59;46.12
52291;BME280;39663;45.432;28.050;2023-11-21T00:55:07;100868.69;;;9.31;46.11
52291;BME280;39663;45.432;28.050;2023-11-21T00:55:39;100870.50;;;9.36;45.49
52291;BME280;39663;45.432;28.050;2023-11-21T00:56:11;100868.33;;;9.07;45.68
52291;BME280;39663;45.432;28.050;2023-11-21T00:56:42;100866.90;;;9.30;45.77
52291;BME280;39663;45.432;28.050;2023-11-21T00:57:14;100868.03;;;9.22;46.15
52291;BME280;39663;45.432;28.050;2023-11-21T00:57:45;100865.86;;;9.57;45.85
52291;BME280;39663;45.432;28.050;2023-11-21T00:58:16;100866.48;;;9.10;46.35
52291;BME280;39663;45.432;28.050;2023-11-21T00:58:49;100866.17;;;9.36;46.12
52291;BME280;39663;45.432;28.050;2023-11-21T01:07:06;100862.07;;;8.49;47.31
52291;BME280;39663;45.432;28.050;2023-11-21T01:07:37;100862.95;;;8.58;46.96
52291;BME280;39663;45.432;28.050;2023-11-21T01:08:09;100863.06;;;8.61;47.36
52291;BME280;39663;45.432;28.050;2023-11-21T01:08:40;100864.00;;;8.73;47.60
52291;BME280;39663;45.432;28.050;2023-11-21T01:09:12;100867.42;;;8.88;47.55
52291;BME280;39663;45.432;28.050;2023-11-21T01:09:43;100867.14;;;8.88;47.83
52291;BME280;39663;45.432;28.050;2023-11-21T01:10:14;100867.24;;;9.30;46.61
52291;BME280;39663;45.432;28.050;2023-11-21T01:10:46;100869.26;;;9.29;46.13
52291;BME280;39663;45.432;28.050;2023-11-21T01:11:17;100869.43;;;9.58;46.43
52291;BME280;39663;45.432;28.050;2023-11-21T01:11:48;100864.89;;;9.44;46.34
52291;BME280;39663;45.432;28.050;2023-11-21T01:12:20;100867.52;;;9.78;46.32
52291;BME280;39663;45.432;28.050;2023-11-21T01:12:51;100866.27;;;9.94;46.03
52291;BME280;39663;45.432;28.050;2023-11-21T01:13:23;100864.01;;;10.09;45.74
52291;BME280;39663;45.432;28.050;2023-11-21T01:13:54;100864.51;;;9.78;45.15
52291;BME280;39663;45.432;28.050;2023-11-21T01:14:25;100863.92;;;10.10;45.25
52291;BME280;39663;45.432;28.050;2023-11-21T01:14:57;100857.89;;;10.04;44.25
52291;BME280;39663;45.432;28.050;2023-11-21T01:15:28;100855.81;;;9.91;44.27
52291;BME280;39663;45.432;28.050;2023-11-21T01:15:59;100857.03;;;10.13;43.80
52291;BME280;39663;45.432;28.050;2023-11-21T01:16:31;100856.70;;;10.31;43.76
52291;BME280;39663;45.432;28.050;2023-11-21T01:17:02;100857.78;;;10.03;43.47
52291;BME280;39663;45.432;28.050;2023-11-21T01:17:34;100861.88;;;9.95;43.95
52291;BME280;39663;45.432;28.050;2023-11-21T01:18:06;100861.47;;;9.79;43.64
52291;BME280;39663;45.432;28.050;2023-11-21T01:18:37;100859.90;;;9.70;44.72
52291;BME280;39663;45.432;28.050;2023-11-21T01:19:09;100859.18;;;9.69;44.42
52291;BME280;39663;45.432;28.050;2023-11-21T01:19:40;100860.13;;;9.61;45.41
52291;BME280;39663;45.432;28.050;2023-11-21T01:20:12;100860.27;;;9.94;44.29
52291;BME280;39663;45.432;28.050;2023-11-21T01:20:43;100859.08;;;9.56;43.72
52291;BME280;39663;45.432;28.050;2023-11-21T01:21:15;100859.22;;;9.63;44.12
52291;BME280;39663;45.432;28.050;2023-11-21T01:21:46;100860.07;;;9.37;44.15
52291;BME280;39663;45.432;28.050;2023-11-21T01:22:17;100861.68;;;9.56;44.27
52291;BME280;39663;45.432;28.050;2023-11-21T01:22:49;100859.67;;;9.28;44.70
52291;BME280;39663;45.432;28.050;2023-11-21T01:23:20;100861.42;;;9.24;45.50
52291;BME280;39663;45.432;28.050;2023-11-21T01:23:52;100863.11;;;9.70;44.89
52291;BME280;39663;45.432;28.050;2023-11-21T01:24:23;100862.52;;;9.38;45.21
52291;BME280;39663;45.432;28.050;2023-11-21T01:24:54;100864.78;;;9.72;44.81
52291;BME280;39663;45.432;28.050;2023-11-21T01:25:26;100861.66;;;9.62;44.70
52291;BME280;39663;45.432;28.050;2023-11-21T01:25:57;100859.97;;;9.62;44.71
52291;BME280;39663;45.432;28.050;2023-11-21T01:26:29;100857.06;;;9.95;43.99
52291;BME280;39663;45.432;28.050;2023-11-21T01:27:00;100856.58;;;9.75;44.21
52291;BME280;39663;45.432;28.050;2023-11-21T01:27:31;100855.71;;;9.78;43.60
52291;BME280;39663;45.432;28.050;2023-11-21T01:28:03;100855.62;;;9.63;43.65
52291;BME280;39663;45.432;28.050;2023-11-21T01:28:34;100856.16;;;9.58;43.89
52291;BME280;39663;45.432;28.050;2023-11-21T01:29:06;100853.84;;;9.43;43.89
52291;BME280;39663;45.432;28.050;2023-11-21T01:29:37;100852.36;;;9.21;43.96
52291;BME280;39663;45.432;28.050;2023-11-21T01:30:10;100850.65;;;9.16;45.23
52291;BME280;39663;45.432;28.050;2023-11-21T01:30:41;100850.94;;;9.19;45.09
52291;BME280;39663;45.432;28.050;2023-11-21T01:31:13;100851.07;;;9.43;44.49
52291;BME280;39663;45.432;28.050;2023-11-21T01:31:44;100850.77;;;9.28;44.93
52291;BME280;39663;45.432;28.050;2023-11-21T01:32:15;100851.58;;;9.50;44.73
52291;BME280;39663;45.432;28.050;2023-11-21T01:32:47;100853.22;;;9.53;44.35
52291;BME280;39663;45.432;28.050;2023-11-21T01:33:18;100854.43;;;9.25;45.23
52291;BME280;39663;45.432;28.050;2023-11-21T01:33:49;100855.09;;;9.48;45.56
52291;BME280;39663;45.432;28.050;2023-11-21T01:34:21;100854.25;;;9.62;45.76
52291;BME280;39663;45.432;28.050;2023-11-21T01:34:52;100854.99;;;9.80;44.47
52291;BME280;39663;45.432;28.050;2023-11-21T01:35:24;100857.46;;;9.65;44.93
52291;BME280;39663;45.432;28.050;2023-11-21T01:35:55;100855.47;;;9.92;44.69
52291;BME280;39663;45.432;28.050;2023-11-21T01:36:31;100857.55;;;9.80;44.76
52291;BME280;39663;45.432;28.050;2023-11-21T01:37:02;100861.95;;;9.88;44.40
52291;BME280;39663;45.432;28.050;2023-11-21T01:37:34;100860.76;;;9.92;43.95
52291;BME280;39663;45.432;28.050;2023-11-21T01:38:05;100857.09;;;9.85;43.38
52291;BME280;39663;45.432;28.050;2023-11-21T01:38:37;100860.02;;;9.98;43.33
52291;BME280;39663;45.432;28.050;2023-11-21T01:39:08;100861.56;;;9.91;44.24
52291;BME280;39663;45.432;28.050;2023-11-21T01:39:39;100862.76;;;9.83;44.17
52291;BME280;39663;45.432;28.050;2023-11-21T01:40:11;100866.80;;;9.87;44.12
52291;BME280;39663;45.432;28.050;2023-11-21T01:40:42;100868.35;;;9.85;44.23
52291;BME280;39663;45.432;28.050;2023-11-21T01:41:14;100870.43;;;9.89;44.39
52291;BME280;39663;45.432;28.050;2023-11-21T01:41:45;100871.25;;;9.96;44.80
52291;BME280;39663;45.432;28.050;2023-11-21T01:42:16;100868.90;;;9.83;43.52
52291;BME280;39663;45.432;28.050;2023-11-21T01:42:48;100868.74;;;10.03;43.11
52291;BME280;39663;45.432;28.050;2023-11-21T01:43:19;100869.79;;;10.04;44.29
52291;BME280;39663;45.432;28.050;2023-11-21T01:43:50;100869.24;;;10.00;43.81
52291;BME280;39663;45.432;28.050;2023-11-21T01:44:22;100868.84;;;10.05;44.39
52291;BME280;39663;45.432;28.050;2023-11-21T01:44:53;100867.55;;;10.14;43.24
52291;BME280;39663;45.432;28.050;2023-11-21T01:45:24;100867.56;;;10.10;43.92
52291;BME280;39663;45.432;28.050;2023-11-21T01:45:55;100866.34;;;10.07;43.22
52291;BME280;39663;45.432;28.050;2023-11-21T01:46:27;100863.86;;;10.09;43.02
52291;BME280;39663;45.432;28.050;2023-11-21T01:46:58;100863.44;;;10.06;42.89
52291;BME280;39663;45.432;28.050;2023-11-21T01:47:30;100859.63;;;10.14;43.09
52291;BME280;39663;45.432;28.050;2023-11-21T01:48:02;100859.02;;;10.12;43.17
52291;BME280;39663;45.432;28.050;2023-11-21T01:48:34;100857.37;;;10.05;43.10
52291;BME280;39663;45.432;28.050;2023-11-21T01:49:06;100857.45;;;9.83;42.89
52291;BME280;39663;45.432;28.050;2023-11-21T01:49:37;100862.85;;;9.90;44.36
52291;BME280;39663;45.432;28.050;2023-11-21T01:50:13;100858.07;;;10.04;43.17
52291;BME280;39663;45.432;28.050;2023-11-21T01:50:45;100859.60;;;10.07;43.19
52291;BME280;39663;45.432;28.050;2023-11-21T01:51:17;100860.75;;;9.65;43.79
52291;BME280;39663;45.432;28.050;2023-11-21T01:51:49;100862.97;;;9.94;44.70
52291;BME280;39663;45.432;28.050;2023-11-21T01:52:21;100857.87;;;9.95;43.71
52291;BME280;39663;45.432;28.050;2023-11-21T01:52:53;100859.67;;;9.95;42.75
52291;BME280;39663;45.432;28.050;2023-11-21T01:53:25;100860.25;;;9.72;43.93
52291;BME280;39663;45.432;28.050;2023-11-21T01:53:57;100858.46;;;9.91;43.98
52291;BME280;39663;45.432;28.050;2023-11-21T01:54:29;100858.95;;;9.56;44.13
52291;BME280;39663;45.432;28.050;2023-11-21T01:55:01;100861.66;;;9.57;44.73
52291;BME280;39663;45.432;28.050;2023-11-21T01:55:33;100858.69;;;9.51;43.31
52291;BME280;39663;45.432;28.050;2023-11-21T01:56:06;100858.17;;;9.64;43.83
52291;BME280;39663;45.432;28.050;2023-11-21T01:56:37;100855.71;;;9.49;43.96
52291;BME280;39663;45.432;28.050;2023-11-21T01:57:09;100856.02;;;9.66;44.45
52291;BME280;39663;45.432;28.050;2023-11-21T01:57:41;100854.45;;;9.61;44.59
52291;BME280;39663;45.432;28.050;2023-11-21T01:58:12;100854.16;;;9.83;44.13
52291;BME280;39663;45.432;28.050;2023-11-21T01:58:44;100856.57;;;9.82;43.83
52291;BME280;39663;45.432;28.050;2023-11-21T02:01:34;100855.62;;;9.26;44.58
52291;BME280;39663;45.432;28.050;2023-11-21T02:02:06;100856.47;;;9.41;46.20
52291;BME280;39663;45.432;28.050;2023-11-21T02:02:38;100858.02;;;9.64;46.41
52291;BME280;39663;45.432;28.050;2023-11-21T02:03:09;100861.99;;;9.72;46.26
52291;BME280;39663;45.432;28.050;2023-11-21T02:03:41;100862.66;;;9.49;46.12
52291;BME280;39663;45.432;28.050;2023-11-21T02:04:12;100863.47;;;9.66;46.28
52291;BME280;39663;45.432;28.050;2023-11-21T02:04:44;100862.00;;;9.55;45.76
52291;BME280;39663;45.432;28.050;2023-11-21T02:05:16;100857.52;;;9.87;45.54
52291;BME280;39663;45.432;28.050;2023-11-21T02:05:48;100855.00;;;10.02;45.31
52291;BME280;39663;45.432;28.050;2023-11-21T02:06:20;100853.50;;;10.15;44.35
52291;BME280;39663;45.432;28.050;2023-11-21T02:06:51;100853.94;;;10.08;44.42
52291;BME280;39663;45.432;28.050;2023-11-21T02:07:23;100851.87;;;10.30;43.88
52291;BME280;39663;45.432;28.050;2023-11-21T02:07:54;100851.44;;;10.38;44.12
52291;BME280;39663;45.432;28.050;2023-11-21T02:08:26;100849.89;;;10.29;42.69
52291;BME280;39663;45.432;28.050;2023-11-21T02:08:57;100851.93;;;9.98;43.71
52291;BME280;39663;45.432;28.050;2023-11-21T02:09:29;100853.06;;;10.28;43.60
52291;BME280;39663;45.432;28.050;2023-11-21T02:10:01;100855.06;;;9.53;43.34
52291;BME280;39663;45.432;28.050;2023-11-21T02:10:33;100857.78;;;10.01;43.99
52291;BME280;39663;45.432;28.050;2023-11-21T02:11:04;100859.51;;;10.17;44.28
52291;BME280;39663;45.432;28.050;2023-11-21T02:11:36;100859.28;;;10.26;44.39
52291;BME280;39663;45.432;28.050;2023-11-21T02:12:08;100859.53;;;10.51;43.65
52291;BME280;39663;45.432;28.050;2023-11-21T02:12:39;100860.03;;;10.78;43.22
52291;BME280;39663;45.432;28.050;2023-11-21T02:13:10;100858.93;;;10.64;43.09
52291;BME280;39663;45.432;28.050;2023-11-21T02:13:42;100860.64;;;9.77;43.72
52291;BME280;39663;45.432;28.050;2023-11-21T02:14:14;100860.91;;;9.52;43.62
52291;BME280;39663;45.432;28.050;2023-11-21T02:14:46;100861.63;;;10.25;43.18
52291;BME280;39663;45.432;28.050;2023-11-21T02:15:17;100862.53;;;10.45;43.29
52291;BME280;39663;45.432;28.050;2023-11-21T02:15:49;100863.82;;;10.97;42.22
52291;BME280;39663;45.432;28.050;2023-11-21T02:16:21;100864.91;;;10.41;42.90
52291;BME280;39663;45.432;28.050;2023-11-21T02:16:53;100867.16;;;10.74;42.69
52291;BME280;39663;45.432;28.050;2023-11-21T02:17:25;100865.86;;;10.75;42.12
52291;BME280;39663;45.432;28.050;2023-11-21T02:17:56;100866.06;;;11.05;42.65
52291;BME280;39663;45.432;28.050;2023-11-21T02:18:28;100866.52;;;10.89;42.13
52291;BME280;39663;45.432;28.050;2023-11-21T02:19:00;100866.59;;;10.83;42.73
52291;BME280;39663;45.432;28.050;2023-11-21T02:19:32;100867.50;;;10.83;42.25
52291;BME280;39663;45.432;28.050;2023-11-21T02:20:04;100868.93;;;10.79;43.31
52291;BME280;39663;45.432;28.050;2023-11-21T02:20:36;100870.94;;;10.86;42.15
52291;BME280;39663;45.432;28.050;2023-11-21T02:21:07;100872.51;;;10.71;43.19
52291;BME280;39663;45.432;28.050;2023-11-21T02:21:38;100872.23;;;10.82;43.37
52291;BME280;39663;45.432;28.050;2023-11-21T02:22:11;100872.06;;;10.44;42.93
52291;BME280;39663;45.432;28.050;2023-11-21T02:22:43;100872.97;;;10.64;43.56
52291;BME280;39663;45.432;28.050;2023-11-21T02:23:16;100872.00;;;10.86;43.14
52291;BME280;39663;45.432;28.050;2023-11-21T02:23:47;100873.38;;;10.48;42.03
52291;BME280;39663;45.432;28.050;2023-11-21T02:24:19;100873.29;;;10.73;42.27
52291;BME280;39663;45.432;28.050;2023-11-21T02:24:51;100877.35;;;10.08;42.50
52291;BME280;39663;45.432;28.050;2023-11-21T02:25:22;100876.52;;;10.27;43.46
52291;BME280;39663;45.432;28.050;2023-11-21T02:25:54;100878.35;;;10.18;43.49
52291;BME280;39663;45.432;28.050;2023-11-21T02:26:25;100881.23;;;9.97;44.12
52291;BME280;39663;45.432;28.050;2023-11-21T02:26:56;100883.27;;;10.09;44.11
52291;BME280;39663;45.432;28.050;2023-11-21T02:27:28;100886.84;;;10.19;44.40
52291;BME280;39663;45.432;28.050;2023-11-21T02:28:01;100886.74;;;10.23;44.17
52291;BME280;39663;45.432;28.050;2023-11-21T02:28:33;100887.70;;;10.02;43.26
52291;BME280;39663;45.432;28.050;2023-11-21T02:29:04;100890.33;;;10.14;44.14
52291;BME280;39663;45.432;28.050;2023-11-21T02:29:36;100890.68;;;10.25;43.55
52291;BME280;39663;45.432;28.050;2023-11-21T02:30:08;100891.59;;;10.03;43.80
52291;BME280;39663;45.432;28.050;2023-11-21T02:30:39;100892.57;;;10.15;44.63
52291;BME280;39663;45.432;28.050;2023-11-21T02:31:11;100892.36;;;10.04;45.02
52291;BME280;39663;45.432;28.050;2023-11-21T02:31:43;100893.31;;;10.12;44.61
52291;BME280;39663;45.432;28.050;2023-11-21T02:32:14;100890.47;;;10.36;43.87
52291;BME280;39663;45.432;28.050;2023-11-21T02:32:46;100888.33;;;10.31;44.54
52291;BME280;39663;45.432;28.050;2023-11-21T02:33:17;100887.62;;;10.23;44.42
52291;BME280;39663;45.432;28.050;2023-11-21T02:33:49;100881.59;;;10.24;44.33
52291;BME280;39663;45.432;28.050;2023-11-21T02:34:22;100880.88;;;10.50;44.34
52291;BME280;39663;45.432;28.050;2023-11-21T02:34:53;100876.86;;;10.60;43.30
52291;BME280;39663;45.432;28.050;2023-11-21T02:35:25;100872.99;;;10.48;42.86
52291;BME280;39663;45.432;28.050;2023-11-21T02:35:56;100873.89;;;10.51;43.69
52291;BME280;39663;45.432;28.050;2023-11-21T02:36:28;100874.08;;;10.52;43.79
52291;BME280;39663;45.432;28.050;2023-11-21T02:36:59;100871.09;;;10.35;43.12
52291;BME280;39663;45.432;28.050;2023-11-21T02:37:30;100873.09;;;10.51;44.13
52291;BME280;39663;45.432;28.050;2023-11-21T02:38:02;100870.00;;;10.57;43.45
52291;BME280;39663;45.432;28.050;2023-11-21T02:38:33;100869.79;;;10.61;43.02
52291;BME280;39663;45.432;28.050;2023-11-21T02:39:04;100871.41;;;10.49;43.80
52291;BME280;39663;45.432;28.050;2023-11-21T02:39:36;100867.76;;;10.55;43.11
52291;BME280;39663;45.432;28.050;2023-11-21T02:40:09;100868.14;;;10.51;43.35
52291;BME280;39663;45.432;28.050;2023-11-21T02:40:40;100871.54;;;10.46;42.99
52291;BME280;39663;45.432;28.050;2023-11-21T02:41:12;100870.34;;;10.21;43.40
52291;BME280;39663;45.432;28.050;2023-11-21T02:41:44;100870.97;;;10.07;44.42
52291;BME280;39663;45.432;28.050;2023-11-21T02:42:15;100868.84;;;10.15;43.32
52291;BME280;39663;45.432;28.050;2023-11-21T02:42:47;100869.31;;;10.36;43.13
52291;BME280;39663;45.432;28.050;2023-11-21T02:43:19;100869.67;;;10.31;43.34
52291;BME280;39663;45.432;28.050;2023-11-21T02:43:50;100869.76;;;10.12;43.73
52291;BME280;39663;45.432;28.050;2023-11-21T02:44:22;100869.57;;;10.03;44.08
52291;BME280;39663;45.432;28.050;2023-11-21T02:44:53;100869.99;;;9.84;43.52
52291;BME280;39663;45.432;28.050;2023-11-21T02:45:25;100869.91;;;9.73;44.09
52291;BME280;39663;45.432;28.050;2023-11-21T02:45:56;100874.30;;;9.71;44.32
52291;BME280;39663;45.432;28.050;2023-11-21T02:46:28;100875.81;;;9.54;44.34
52291;BME280;39663;45.432;28.050;2023-11-21T02:46:59;100874.31;;;9.60;44.46
52291;BME280;39663;45.432;28.050;2023-11-21T02:47:30;100877.48;;;9.16;44.68
52291;BME280;39663;45.432;28.050;2023-11-21T02:48:02;100877.83;;;9.04;44.87
52291;BME280;39663;45.432;28.050;2023-11-21T02:48:33;100878.49;;;9.04;45.57
52291;BME280;39663;45.432;28.050;2023-11-21T02:49:05;100879.89;;;8.86;45.82
52291;BME280;39663;45.432;28.050;2023-11-21T02:49:37;100877.63;;;9.09;46.29
52291;BME280;39663;45.432;28.050;2023-11-21T02:50:09;100879.85;;;8.95;45.88
52291;BME280;39663;45.432;28.050;2023-11-21T02:50:40;100879.20;;;8.97;45.86
52291;BME280;39663;45.432;28.050;2023-11-21T02:51:12;100880.58;;;9.33;46.09
52291;BME280;39663;45.432;28.050;2023-11-21T02:51:43;100878.65;;;9.17;45.82
52291;BME280;39663;45.432;28.050;2023-11-21T02:52:15;100877.01;;;9.04;45.65
52291;BME280;39663;45.432;28.050;2023-11-21T02:52:46;100875.29;;;8.72;45.70
52291;BME280;39663;45.432;28.050;2023-11-21T02:53:17;100876.68;;;9.04;46.32
52291;BME280;39663;45.432;28.050;2023-11-21T02:53:49;100875.65;;;8.95;46.31
52291;BME280;39663;45.432;28.050;2023-11-21T02:54:20;100876.07;;;8.71;46.33